Time;durP1;ratioP1;P1;durP2;ratioP2;P2;SDS_P1;SDS_P2;PMS_P1;PMS_P2;Temp;Humidity;BMP_temperature;BMP_pressure;BME280_temperature;BME280_humidity;BME280_pressure;Samples;Min_cycle;Max_cycle;Signal;HPM_P1;HPM_P2
2021/10/05 00:02:03;;;;;;;;;;;;;;;19.28;54.66;101377.16;5043300;28;98200;-87
2021/10/05 00:04:31;;;;;;;;;;;;;;;19.17;55.06;101375.13;5022897;28;99224;-87
2021/10/05 00:06:57;;;;;;;;;;;;;;;19.45;54.45;101369.78;5027652;28;97023;-86
2021/10/05 00:09:23;;;;;;;;;;;;;;;19.66;53.75;101364.06;5027321;28;96823;-86
2021/10/05 00:11:50;;;;;;;;;;;;;;;19.69;53.20;101364.72;5035838;28;96839;-87
2021/10/05 00:14:16;;;;;;;;;;;;;;;19.48;53.13;101361.59;5029543;28;98239;-86
2021/10/05 00:16:42;;;;;;;;;;;;;;;19.48;53.05;101366.97;5036524;28;96647;-86
2021/10/05 00:19:09;;;;;;;;;;;;;;;19.43;53.81;101360.13;5020888;28;96816;-86
2021/10/05 00:21:36;;;;;;;;;;;;;;;19.37;54.38;101364.03;5029401;28;98500;-85
2021/10/05 00:24:03;;;;;;;;;;;;;;;19.26;55.10;101352.28;5026872;28;98106;-86
2021/10/05 00:26:29;;;;;;;;;;;;;;;19.08;55.33;101354.28;5015850;28;96828;-86
2021/10/05 00:28:57;;;;;;;;;;;;;;;19.30;54.83;101351.97;5020633;28;96801;-88
2021/10/05 00:31:23;;;;;;;;;;;;;;;19.35;54.77;101352.56;5009317;28;96802;-85
2021/10/05 00:33:49;;;;;;;;;;;;;;;19.30;54.90;101356.47;5029441;28;97884;-85
2021/10/05 00:36:16;;;;;;;;;;;;;;;19.18;54.87;101357.25;5025608;28;96773;-86
2021/10/05 00:38:43;;;;;;;;;;;;;;;19.40;54.72;101354.97;5037643;28;96927;-84
2021/10/05 00:41:10;;;;;;;;;;;;;;;19.48;54.37;101358.06;5026530;28;97825;-85
2021/10/05 00:43:39;;;;;;;;;;;;;;;19.46;54.23;101355.47;5026028;28;98990;-86
2021/10/05 00:46:05;;;;;;;;;;;;;;;19.41;54.97;101356.69;5027506;28;97097;-85
2021/10/05 00:48:32;;;;;;;;;;;;;;;19.27;55.07;101360.22;5024966;28;97186;-86
2021/10/05 00:50:59;;;;;;;;;;;;;;;19.26;55.58;101352.28;5022203;28;101547;-84
2021/10/05 00:53:25;;;;;;;;;;;;;;;19.26;55.74;101347.78;5021664;28;98914;-84
2021/10/05 00:55:53;;;;;;;;;;;;;;;19.28;55.59;101343.19;5028185;28;96708;-84
2021/10/05 00:58:19;;;;;;;;;;;;;;;19.37;54.96;101333.69;5039184;27;96623;-87
2021/10/05 01:00:46;;;;;;;;;;;;;;;19.43;54.93;101319.91;4988952;28;98379;-86
2021/10/05 01:03:12;;;;;;;;;;;;;;;19.55;54.44;101315.66;5001034;28;99263;-86
2021/10/05 01:05:39;;;;;;;;;;;;;;;19.75;53.73;101318.78;5017643;28;96742;-86
2021/10/05 01:08:05;;;;;;;;;;;;;;;19.72;53.38;101318.97;5028051;27;96887;-86
2021/10/05 01:10:32;;;;;;;;;;;;;;;19.84;52.57;101314.63;5027111;28;99438;-87
2021/10/05 01:12:59;;;;;;;;;;;;;;;19.75;51.72;101315.22;5021578;28;96937;-84
2021/10/05 01:15:27;;;;;;;;;;;;;;;19.77;51.61;101308.78;5011059;28;97233;-85
2021/10/05 01:17:53;;;;;;;;;;;;;;;19.78;51.49;101305.16;5019611;28;96944;-86
2021/10/05 01:20:20;;;;;;;;;;;;;;;19.62;51.57;101304.44;5035766;27;99134;-84
2021/10/05 01:22:48;;;;;;;;;;;;;;;19.71;51.45;101297.59;5023837;28;98016;-85
2021/10/05 01:25:15;;;;;;;;;;;;;;;19.84;51.23;101277.06;5018473;28;96696;-85
2021/10/05 01:27:42;;;;;;;;;;;;;;;19.84;51.01;101280.63;5019016;28;97200;-84
2021/10/05 01:30:09;;;;;;;;;;;;;;;19.96;49.30;101265.53;5019157;28;97937;-84
2021/10/05 01:32:35;;;;;;;;;;;;;;;19.52;48.42;101264.91;5019220;28;100473;-84
2021/10/05 01:35:02;;;;;;;;;;;;;;;19.49;48.53;101266.81;5022920;27;96923;-85
2021/10/05 01:37:28;;;;;;;;;;;;;;;19.79;48.12;101263.97;5020051;28;96762;-85
2021/10/05 01:39:56;;;;;;;;;;;;;;;19.68;49.05;101271.00;5021308;28;98442;-85
2021/10/05 01:42:23;;;;;;;;;;;;;;;19.86;48.96;101272.47;5018740;28;99074;-84
2021/10/05 01:44:49;;;;;;;;;;;;;;;19.90;48.87;101263.25;5023622;28;96806;-84
2021/10/05 01:47:15;;;;;;;;;;;;;;;19.77;49.09;101267.72;5000846;28;96962;-84
2021/10/05 01:49:42;;;;;;;;;;;;;;;19.56;50.11;101269.13;5013870;28;98147;-84
2021/10/05 01:52:08;;;;;;;;;;;;;;;19.65;49.86;101265.84;5019695;28;98800;-85
2021/10/05 01:54:35;;;;;;;;;;;;;;;19.68;49.77;101266.50;5022451;28;96881;-84
2021/10/05 01:57:03;;;;;;;;;;;;;;;19.81;49.84;101264.75;5025864;28;97865;-84
2021/10/05 01:59:30;;;;;;;;;;;;;;;19.86;49.30;101267.13;5000796;28;98535;-83
2021/10/05 02:01:56;;;;;;;;;;;;;;;19.60;49.43;101270.63;5030892;28;98694;-84
2021/10/05 02:04:23;;;;;;;;;;;;;;;19.62;49.08;101263.38;5026518;28;96790;-84
2021/10/05 02:06:49;;;;;;;;;;;;;;;19.74;49.68;101265.25;5027812;28;96867;-83
2021/10/05 02:09:16;;;;;;;;;;;;;;;19.86;49.96;101261.75;5023054;28;98896;-85
2021/10/05 02:11:42;;;;;;;;;;;;;;;19.83;49.75;101245.84;5020144;28;98123;-84
2021/10/05 02:14:10;;;;;;;;;;;;;;;19.70;49.88;101240.44;5020816;28;96619;-85
2021/10/05 02:16:37;;;;;;;;;;;;;;;19.78;49.31;101239.94;5020875;28;96541;-84
2021/10/05 02:19:04;;;;;;;;;;;;;;;19.85;48.69;101225.16;5025397;28;100658;-85
2021/10/05 02:21:31;;;;;;;;;;;;;;;19.58;50.66;101232.34;5040387;27;98320;-85
2021/10/05 02:26:41;;;;;;;;;;;;;;;19.67;49.44;101229.06;5019872;28;96647;-86
2021/10/05 02:29:07;;;;;;;;;;;;;;;19.33;50.24;101227.69;5024055;28;98206;-85
2021/10/05 02:31:35;;;;;;;;;;;;;;;19.49;50.67;101220.41;5019386;28;99190;-86
2021/10/05 02:34:01;;;;;;;;;;;;;;;19.63;49.88;101223.03;5020215;28;96879;-85
2021/10/05 02:36:28;;;;;;;;;;;;;;;19.77;50.14;101217.63;5020501;28;96851;-85
2021/10/05 02:38:54;;;;;;;;;;;;;;;19.70;50.65;101216.31;5025608;28;98892;-87
2021/10/05 02:41:20;;;;;;;;;;;;;;;19.71;48.92;101214.50;5019025;28;100974;-85
2021/10/05 02:43:47;;;;;;;;;;;;;;;19.72;48.98;101210.84;5003123;28;96988;-85
2021/10/05 02:46:13;;;;;;;;;;;;;;;19.42;49.48;101194.94;5013433;27;97429;-84
2021/10/05 02:48:41;;;;;;;;;;;;;;;19.15;49.74;101192.22;5021498;28;99224;-85
2021/10/05 02:51:07;;;;;;;;;;;;;;;19.25;49.71;101192.47;5028186;28;97036;-84
2021/10/05 02:53:33;;;;;;;;;;;;;;;19.56;49.70;101186.03;5029639;28;96868;-86
2021/10/05 02:55:59;;;;;;;;;;;;;;;19.28;49.32;101187.78;5041474;28;96886;-86
2021/10/05 02:58:26;;;;;;;;;;;;;;;19.34;49.03;101183.84;5030797;28;97739;-85
2021/10/05 03:00:52;;;;;;;;;;;;;;;19.17;49.30;101176.88;5039356;28;97166;-85
2021/10/05 03:03:19;;;;;;;;;;;;;;;19.37;48.88;101175.59;5029313;28;96579;-85
2021/10/05 03:05:47;;;;;;;;;;;;;;;19.37;48.65;101171.09;5028949;28;96787;-85
2021/10/05 03:08:13;;;;;;;;;;;;;;;19.14;49.23;101177.09;5034303;27;97935;-84
2021/10/05 03:10:39;;;;;;;;;;;;;;;19.16;48.69;101166.28;5048164;27;98131;-81
2021/10/05 03:13:06;;;;;;;;;;;;;;;19.16;48.95;101153.78;5041134;27;96652;-86
2021/10/05 03:15:33;;;;;;;;;;;;;;;19.03;49.18;101153.66;5039172;28;96390;-86
2021/10/05 03:17:59;;;;;;;;;;;;;;;19.16;49.12;101147.53;5036096;28;99671;-86
2021/10/05 03:20:26;;;;;;;;;;;;;;;19.31;48.57;101142.03;5048825;27;96437;-85
2021/10/05 03:22:56;;;;;;;;;;;;;;;19.44;47.96;101129.53;5042139;28;96502;-86
2021/10/05 03:25:22;;;;;;;;;;;;;;;19.38;48.48;101134.44;5040138;28;97327;-86
2021/10/05 03:27:49;;;;;;;;;;;;;;;19.40;47.70;101122.69;5033189;28;96653;-85
2021/10/05 03:30:15;;;;;;;;;;;;;;;19.07;48.52;101127.56;5032584;28;97991;-85
2021/10/05 03:32:42;;;;;;;;;;;;;;;19.25;48.27;101114.78;5036635;28;96607;-84
2021/10/05 03:35:09;;;;;;;;;;;;;;;18.86;49.17;101115.56;5020850;28;96602;-85
2021/10/05 03:37:35;;;;;;;;;;;;;;;19.04;48.68;101099.16;5032104;28;98199;-84
2021/10/05 03:40:03;;;;;;;;;;;;;;;19.18;48.55;101100.06;5033889;28;97667;-84
2021/10/05 03:42:31;;;;;;;;;;;;;;;18.86;49.18;101088.78;5037649;28;96562;-84
2021/10/05 03:44:58;;;;;;;;;;;;;;;19.05;49.03;101094.66;5037962;28;96487;-83
2021/10/05 03:47:24;;;;;;;;;;;;;;;19.01;49.58;101090.47;5037870;28;99294;-84
2021/10/05 03:49:51;;;;;;;;;;;;;;;18.83;49.93;101091.66;5047898;28;97773;-84
2021/10/05 03:52:17;;;;;;;;;;;;;;;19.01;49.66;101077.09;5037807;28;96675;-85
2021/10/05 03:54:43;;;;;;;;;;;;;;;18.62;50.02;101081.38;5059909;27;96736;-84
2021/10/05 03:57:11;;;;;;;;;;;;;;;18.82;49.67;101068.53;5037962;27;98798;-85
2021/10/05 03:59:38;;;;;;;;;;;;;;;18.40;50.87;101074.75;5023435;28;97754;-84
2021/10/05 04:02:07;;;;;;;;;;;;;;;18.58;50.65;101073.59;5040355;28;96818;-85
2021/10/05 04:04:34;;;;;;;;;;;;;;;18.77;50.00;101062.63;5016725;28;96646;-87
2021/10/05 04:07:00;;;;;;;;;;;;;;;18.29;50.94;101067.41;5032078;28;99177;-86
2021/10/05 04:09:26;;;;;;;;;;;;;;;18.36;50.98;101057.19;5029300;28;98031;-87
2021/10/05 04:11:52;;;;;;;;;;;;;;;18.31;50.97;101055.63;5039214;28;96515;-86
2021/10/05 04:14:20;;;;;;;;;;;;;;;18.61;50.58;101042.19;5044005;27;96796;-86
2021/10/05 04:16:47;;;;;;;;;;;;;;;18.62;50.66;101030.53;5045249;27;100882;-86
2021/10/05 04:19:13;;;;;;;;;;;;;;;18.55;50.86;101028.28;5046381;28;98907;-86
2021/10/05 04:21:39;;;;;;;;;;;;;;;18.55;51.41;101020.28;5036999;28;96605;-87
2021/10/05 04:24:06;;;;;;;;;;;;;;;18.53;51.18;101023.03;5039229;28;96648;-87
2021/10/05 04:26:32;;;;;;;;;;;;;;;18.42;51.92;101016.66;5044363;27;97915;-86
2021/10/05 04:28:58;;;;;;;;;;;;;;;18.70;51.85;101009.47;5057738;27;97619;-87
2021/10/05 04:31:26;;;;;;;;;;;;;;;18.47;52.53;101007.38;5048300;27;96310;-84
2021/10/05 04:33:53;;;;;;;;;;;;;;;18.60;52.61;101019.03;5043232;27;95964;-85
2021/10/05 04:36:19;;;;;;;;;;;;;;;18.41;53.46;101004.22;5036503;27;97845;-86
2021/10/05 04:38:46;;;;;;;;;;;;;;;18.77;52.75;101003.72;5025072;28;99186;-86
2021/10/05 04:41:12;;;;;;;;;;;;;;;18.15;54.49;100998.72;5024977;28;96682;-86
2021/10/05 04:43:38;;;;;;;;;;;;;;;18.03;55.49;100996.81;5038174;28;96784;-85
2021/10/05 04:46:05;;;;;;;;;;;;;;;17.88;56.13;100998.63;5029952;28;98178;-86
2021/10/05 04:48:32;;;;;;;;;;;;;;;18.09;55.84;100988.41;5005207;28;97863;-86
2021/10/05 04:50:59;;;;;;;;;;;;;;;18.39;55.49;100988.28;5003272;28;96771;-86
2021/10/05 04:53:25;;;;;;;;;;;;;;;18.28;56.30;100986.28;5010899;28;97031;-85
2021/10/05 04:55:51;;;;;;;;;;;;;;;17.89;57.18;100972.75;5036432;28;99224;-86
2021/10/05 04:58:18;;;;;;;;;;;;;;;17.82;58.16;100972.28;5040404;27;98802;-86
2021/10/05 05:00:45;;;;;;;;;;;;;;;18.18;56.85;100962.91;5025421;28;96751;-85
2021/10/05 05:03:11;;;;;;;;;;;;;;;18.50;56.74;100956.34;5027441;28;96910;-85
2021/10/05 05:05:38;;;;;;;;;;;;;;;18.08;57.77;100956.41;5016174;28;97947;-83
2021/10/05 05:08:05;;;;;;;;;;;;;;;18.24;57.83;100959.84;5000827;28;98867;-83
2021/10/05 05:10:32;;;;;;;;;;;;;;;18.48;57.10;100955.59;5010072;28;97702;-80
2021/10/05 05:12:58;;;;;;;;;;;;;;;17.85;59.32;100952.53;5019008;28;96996;-83
2021/10/05 05:15:25;;;;;;;;;;;;;;;17.88;59.24;100947.84;5015450;28;98855;-83
2021/10/05 05:17:51;;;;;;;;;;;;;;;17.73;60.15;100943.44;5038401;28;96622;-83
2021/10/05 05:20:18;;;;;;;;;;;;;;;18.09;59.25;100944.75;5033705;28;96728;-87
2021/10/05 05:23:01;;;;;;;;;;;;;;;18.19;59.18;100940.53;5033883;28;96804;-87
2021/10/05 05:25:29;;;;;;;;;;;;;;;18.15;59.08;100939.03;5013379;28;98926;-81
2021/10/05 05:27:57;;;;;;;;;;;;;;;18.37;58.93;100925.13;5015397;28;98848;-86
2021/10/05 05:30:23;;;;;;;;;;;;;;;17.91;60.01;100925.41;5019469;28;97346;-86
2021/10/05 05:32:50;;;;;;;;;;;;;;;17.84;60.58;100922.25;5037103;28;96637;-86
2021/10/05 05:35:16;;;;;;;;;;;;;;;17.84;60.41;100910.72;5010241;28;96975;-86
2021/10/05 05:37:42;;;;;;;;;;;;;;;17.84;60.76;100922.25;5008012;28;97656;-86
2021/10/05 05:40:09;;;;;;;;;;;;;;;18.00;60.47;100923.94;5018277;28;96807;-88
2021/10/05 05:42:37;;;;;;;;;;;;;;;18.12;60.16;100915.13;4987103;28;96852;-88
2021/10/05 05:45:04;;;;;;;;;;;;;;;17.92;60.89;100908.38;5001942;28;100073;-89
2021/10/05 05:47:31;;;;;;;;;;;;;;;18.05;60.44;100901.31;5014162;28;98787;-86
2021/10/05 05:49:59;;;;;;;;;;;;;;;17.78;61.96;100898.59;5009242;28;97296;-85
2021/10/05 05:52:25;;;;;;;;;;;;;;;17.88;62.02;100896.19;5006658;28;96894;-86
2021/10/05 05:54:51;;;;;;;;;;;;;;;18.26;60.53;100897.25;5003700;28;99288;-87
2021/10/05 05:57:18;;;;;;;;;;;;;;;18.12;60.34;100902.63;5014871;28;97696;-85
2021/10/05 05:59:45;;;;;;;;;;;;;;;17.60;62.21;100898.81;5019277;28;96715;-86
2021/10/05 06:02:12;;;;;;;;;;;;;;;18.35;60.27;100898.47;5020519;28;96575;-87
2021/10/05 06:04:40;;;;;;;;;;;;;;;18.31;60.54;100891.63;5000048;28;97909;-86
2021/10/05 06:07:07;;;;;;;;;;;;;;;18.03;60.98;100889.00;5019383;28;98060;-86
2021/10/05 06:09:34;;;;;;;;;;;;;;;17.66;62.61;100880.63;5022825;28;96813;-85
2021/10/05 06:12:03;;;;;;;;;;;;;;;17.74;62.67;100873.00;5036118;28;96443;-85
2021/10/05 06:14:30;;;;;;;;;;;;;;;18.04;62.47;100862.19;5036806;28;97903;-85
2021/10/05 06:16:58;;;;;;;;;;;;;;;17.79;62.80;100860.19;5015861;28;97691;-85
2021/10/05 06:19:24;;;;;;;;;;;;;;;18.29;61.35;100858.75;5018001;28;96953;-87
2021/10/05 06:21:51;;;;;;;;;;;;;;;18.37;60.61;100845.75;5033461;28;96525;-88
2021/10/05 06:24:18;;;;;;;;;;;;;;;17.97;62.35;100846.63;5020342;28;98949;-87
2021/10/05 06:26:45;;;;;;;;;;;;;;;18.43;60.85;100850.69;5020171;28;99486;-87
2021/10/05 06:29:11;;;;;;;;;;;;;;;18.54;59.98;100845.47;5020824;28;96875;-87
2021/10/05 06:31:37;;;;;;;;;;;;;;;17.87;61.66;100841.84;5021812;28;96872;-88
2021/10/05 06:34:05;;;;;;;;;;;;;;;18.62;59.73;100848.53;5009725;28;97821;-86
2021/10/05 06:36:31;;;;;;;;;;;;;;;18.74;59.83;100845.97;5018609;28;97719;-87
2021/10/05 06:38:58;;;;;;;;;;;;;;;18.03;61.78;100843.56;5021001;28;96764;-86
2021/10/05 06:41:25;;;;;;;;;;;;;;;18.18;61.24;100834.53;5028085;28;96819;-86
2021/10/05 06:43:51;;;;;;;;;;;;;;;17.91;62.45;100824.69;5021667;28;100521;-87
2021/10/05 06:46:18;;;;;;;;;;;;;;;18.21;61.48;100823.63;5015386;28;98314;-87
2021/10/05 06:48:44;;;;;;;;;;;;;;;18.34;61.21;100816.50;5006612;28;97528;-88
2021/10/05 06:51:13;;;;;;;;;;;;;;;18.45;60.92;100811.28;5019098;28;97249;-88
2021/10/05 06:53:44;;;;;;;;;;;;;;;17.67;64.32;100812.88;5025765;28;100281;-91
2021/10/05 06:56:16;;;;;;;;;;;;;;;18.08;63.16;100801.31;5021352;28;97780;-90
2021/10/05 06:58:43;;;;;;;;;;;;;;;17.59;64.11;100792.94;5022971;28;98451;-91
2021/10/05 07:01:10;;;;;;;;;;;;;;;17.97;63.33;100783.31;5028032;28;97767;-90
2021/10/05 07:03:37;;;;;;;;;;;;;;;17.62;64.61;100774.91;5028781;28;98079;-90
2021/10/05 07:06:13;;;;;;;;;;;;;;;17.91;63.37;100767.69;5039352;27;99196;-89
2021/10/05 07:09:05;;;;;;;;;;;;;;;18.38;62.47;100761.81;5022002;28;96613;-89
2021/10/05 07:11:33;;;;;;;;;;;;;;;18.51;62.26;100757.34;5028160;28;96872;-90
2021/10/05 07:14:00;;;;;;;;;;;;;;;18.75;61.45;100754.00;5020832;27;99122;-90
2021/10/05 07:16:26;;;;;;;;;;;;;;;18.13;62.62;100748.38;5029374;28;97751;-90
2021/10/05 07:21:34;;;;;;;;;;;;;;;18.35;62.61;100745.13;5030208;27;97506;-90
2021/10/05 07:24:04;;;;;;;;;;;;;;;18.69;61.49;100739.22;5030502;28;98573;-89
2021/10/05 07:26:30;;;;;;;;;;;;;;;18.64;61.53;100730.69;5030671;28;96684;-86
2021/10/05 07:28:58;;;;;;;;;;;;;;;18.15;63.38;100731.28;5014158;28;97145;-90
2021/10/05 07:31:24;;;;;;;;;;;;;;;18.03;63.81;100723.25;5020586;28;96914;-89
2021/10/05 07:34:09;;;;;;;;;;;;;;;18.21;63.64;100722.00;5019957;28;97167;-89
2021/10/05 07:36:37;;;;;;;;;;;;;;;18.06;63.83;100710.50;5021896;28;99452;-88
2021/10/05 07:39:04;;;;;;;;;;;;;;;18.67;61.77;100714.38;5020270;28;96853;-88
2021/10/05 07:41:31;;;;;;;;;;;;;;;18.68;61.98;100711.59;5021246;28;96804;-90
2021/10/05 07:44:13;;;;;;;;;;;;;;;18.90;60.93;100702.94;5022976;28;99479;-88
2021/10/05 07:46:41;;;;;;;;;;;;;;;19.05;60.78;100703.66;5016938;28;101629;-89
2021/10/05 07:49:10;;;;;;;;;;;;;;;19.22;60.24;100697.97;5027610;27;97120;-89
2021/10/05 07:51:41;;;;;;;;;;;;;;;18.93;61.18;100685.78;5027056;27;96465;-87
2021/10/05 07:56:51;;;;;;;;;;;;;;;18.39;63.29;100675.25;5042876;28;99810;-88
2021/10/05 07:59:21;;;;;;;;;;;;;;;18.40;63.42;100662.75;5032560;28;96770;-91
2021/10/05 08:04:58;;;;;;;;;;;;;;;18.95;61.07;100654.41;5177998;27;96736;-86
2021/10/05 08:07:26;;;;;;;;;;;;;;;18.70;62.25;100645.47;5177705;27;96371;-86
2021/10/05 08:09:53;;;;;;;;;;;;;;;18.73;62.21;100636.34;5169412;27;98274;-83
2021/10/05 08:12:19;;;;;;;;;;;;;;;18.40;63.62;100636.00;5153204;27;100358;-89
2021/10/05 08:14:46;;;;;;;;;;;;;;;18.75;62.47;100620.19;5140114;27;95852;-88
2021/10/05 08:17:12;;;;;;;;;;;;;;;18.73;62.68;100620.28;5140426;27;96645;-86
2021/10/05 08:19:39;;;;;;;;;;;;;;;18.68;62.67;100609.03;5140497;27;98090;-86
2021/10/05 08:22:10;;;;;;;;;;;;;;;18.78;61.98;100602.06;5146750;27;98274;-90
2021/10/05 08:24:56;;;;;;;;;;;;;;;18.14;64.46;100605.72;5151254;27;96101;-89
2021/10/05 08:27:44;;;;;;;;;;;;;;;18.40;63.63;100596.72;5145543;27;97645;-87
2021/10/05 08:30:11;;;;;;;;;;;;;;;18.90;62.67;100592.31;5132346;27;97151;-89
2021/10/05 08:32:37;;;;;;;;;;;;;;;18.68;63.08;100587.63;5146468;27;99271;-90
2021/10/05 08:35:04;;;;;;;;;;;;;;;18.78;62.83;100582.47;5152348;27;96782;-91
2021/10/05 08:37:56;;;;;;;;;;;;;;;18.42;64.28;100584.09;5151223;22;97300;-85
2021/10/05 08:40:24;;;;;;;;;;;;;;;19.04;62.32;100587.63;5085483;27;96913;-88
2021/10/05 08:42:53;;;;;;;;;;;;;;;19.44;60.74;100584.69;5083067;27;99170;-88
2021/10/05 08:45:34;;;;;;;;;;;;;;;19.75;59.93;100594.88;5094617;27;96909;-88
2021/10/05 08:48:01;;;;;;;;;;;;;;;19.74;59.84;100589.63;5094739;27;96139;-88
2021/10/05 08:50:31;;;;;;;;;;;;;;;19.98;59.05;100584.19;5092639;27;97027;-90
2021/10/05 08:52:58;;;;;;;;;;;;;;;20.01;59.16;100590.19;5095034;27;98103;-87
2021/10/05 08:55:26;;;;;;;;;;;;;;;19.95;59.45;100582.63;5087809;27;96582;-88
2021/10/05 08:57:53;;;;;;;;;;;;;;;20.02;59.32;100578.47;5094249;27;96707;-87
2021/10/05 09:00:22;;;;;;;;;;;;;;;19.54;61.05;100567.00;5091048;27;97259;-88
2021/10/05 09:02:51;;;;;;;;;;;;;;;19.77;60.76;100568.78;5089972;27;100083;-86
2021/10/05 09:05:18;;;;;;;;;;;;;;;19.97;59.97;100577.13;5093521;27;96028;-89
2021/10/05 09:07:45;;;;;;;;;;;;;;;19.73;60.99;100567.31;5094779;27;96785;-88
2021/10/05 09:10:12;;;;;;;;;;;;;;;20.01;59.71;100566.06;5097039;27;98420;-87
2021/10/05 09:12:42;;;;;;;;;;;;;;;20.22;59.31;100579.59;5096052;27;98099;-84
2021/10/05 09:15:10;;;;;;;;;;;;;;;20.25;59.92;100571.34;5088008;27;96392;-81
2021/10/05 09:17:37;;;;;;;;;;;;;;;20.24;60.15;100577.66;5077752;27;96033;-88
2021/10/05 09:20:18;;;;;;;;;;;;;;;20.31;60.31;100570.84;5083300;27;98370;-84
2021/10/05 09:22:44;;;;;;;;;;;;;;;20.20;60.38;100566.34;5083282;27;96569;-84
2021/10/05 09:25:11;;;;;;;;;;;;;;;20.23;60.14;100570.59;5071616;27;96719;-86
2021/10/05 09:27:50;;;;;;;;;;;;;;;19.76;60.82;100560.84;5082914;27;96657;-84
2021/10/05 09:30:17;;;;;;;;;;;;;;;19.20;62.94;100557.06;5080461;27;98115;-82
2021/10/05 09:32:44;;;;;;;;;;;;;;;19.99;60.97;100568.00;5079456;27;98036;-85
2021/10/05 09:35:12;;;;;;;;;;;;;;;20.38;59.65;100544.41;5080114;27;96794;-84
2021/10/05 09:37:38;;;;;;;;;;;;;;;20.59;59.25;100546.25;5077918;27;96219;-86
2021/10/05 09:40:06;;;;;;;;;;;;;;;20.66;59.08;100551.97;5081843;27;99401;-86
2021/10/05 09:42:36;;;;;;;;;;;;;;;20.60;59.44;100547.09;5071364;27;101164;-88
2021/10/05 09:45:08;;;;;;;;;;;;;;;20.54;59.36;100537.72;5078864;27;96833;-89
2021/10/05 09:47:37;;;;;;;;;;;;;;;20.62;59.27;100535.25;5074536;27;97682;-90
2021/10/05 09:52:55;;;;;;;;;;;;;;;20.07;60.55;100517.31;5059193;27;98925;-89
2021/10/05 09:55:28;;;;;;;;;;;;;;;20.05;60.98;100529.13;5065017;27;96718;-87
2021/10/05 09:58:04;;;;;;;;;;;;;;;20.34;60.34;100532.22;5065129;27;96853;-87
2021/10/05 10:00:33;;;;;;;;;;;;;;;20.51;60.05;100519.16;5055791;27;98393;-88
2021/10/05 10:03:03;;;;;;;;;;;;;;;20.47;60.47;100514.19;5057694;27;100145;-84
2021/10/05 10:05:30;;;;;;;;;;;;;;;20.40;60.33;100502.22;5071780;27;96607;-86
2021/10/05 10:07:59;;;;;;;;;;;;;;;20.41;59.46;100503.94;5056675;27;97848;-85
2021/10/05 10:10:29;;;;;;;;;;;;;;;20.52;59.73;100501.22;5048087;27;98623;-90
2021/10/05 10:15:50;;;;;;;;;;;;;;;20.50;60.02;100500.50;5069934;27;96780;-89
2021/10/05 10:18:18;;;;;;;;;;;;;;;20.36;60.72;100503.41;5065521;27;97107;-86
2021/10/05 10:20:50;;;;;;;;;;;;;;;20.39;60.46;100495.13;5053555;27;98824;-89
2021/10/05 10:23:18;;;;;;;;;;;;;;;20.32;60.59;100486.69;5065634;27;97245;-92
2021/10/05 10:25:52;;;;;;;;;;;;;;;20.44;60.50;100487.56;5071434;27;96550;-90
2021/10/05 10:28:26;;;;;;;;;;;;;;;20.34;61.13;100475.88;5077287;27;97391;-90
2021/10/05 10:30:58;;;;;;;;;;;;;;;20.67;60.09;100483.91;5080060;27;97143;-87
2021/10/05 10:33:25;;;;;;;;;;;;;;;20.68;59.91;100470.31;5072462;27;97722;-89
2021/10/05 10:35:52;;;;;;;;;;;;;;;20.88;59.25;100465.13;5075262;27;97176;-90
2021/10/05 10:41:14;;;;;;;;;;;;;;;20.98;59.54;100471.47;5071370;27;98779;-88
2021/10/05 10:43:51;;;;;;;;;;;;;;;20.88;59.59;100463.31;5062111;27;99071;-86
2021/10/05 10:46:29;;;;;;;;;;;;;;;20.90;58.91;100469.41;5057453;27;96792;-89
2021/10/05 10:49:01;;;;;;;;;;;;;;;20.78;59.74;100461.53;5069978;27;96977;-89
2021/10/05 10:51:28;;;;;;;;;;;;;;;20.92;59.82;100456.72;5060395;27;97813;-88
2021/10/05 10:53:58;;;;;;;;;;;;;;;20.68;60.33;100453.34;5062219;27;99363;-88
2021/10/05 10:56:34;;;;;;;;;;;;;;;20.77;60.13;100452.63;5052606;27;97040;-90
2021/10/05 11:01:46;;;;;;;;;;;;;;;20.71;60.47;100444.22;5048783;27;99076;-83
2021/10/05 11:04:13;;;;;;;;;;;;;;;20.60;60.56;100439.72;5050920;27;100409;-84
2021/10/05 11:06:42;;;;;;;;;;;;;;;20.41;61.36;100444.91;5050538;27;97032;-81
2021/10/05 11:09:12;;;;;;;;;;;;;;;20.58;60.67;100436.31;5050995;27;97194;-85
2021/10/05 11:11:42;;;;;;;;;;;;;;;20.71;59.75;100422.72;5057833;27;97883;-84
2021/10/05 11:16:55;;;;;;;;;;;;;;;20.29;62.19;100419.84;5061760;27;97164;-86
2021/10/05 11:19:23;;;;;;;;;;;;;;;20.45;61.71;100415.00;5065658;27;98571;-87
2021/10/05 11:21:55;;;;;;;;;;;;;;;20.61;60.41;100419.97;5068809;27;99083;-86
2021/10/05 11:24:37;;;;;;;;;;;;;;;20.49;61.08;100435.22;5063169;27;98094;-87
2021/10/05 11:27:19;;;;;;;;;;;;;;;20.42;61.74;100431.34;5069329;27;96690;-88
2021/10/05 11:29:46;;;;;;;;;;;;;;;20.46;61.49;100424.75;5059687;27;96782;-89
2021/10/05 11:32:22;;;;;;;;;;;;;;;20.64;60.91;100427.75;5070690;27;96896;-88
2021/10/05 11:34:49;;;;;;;;;;;;;;;20.54;61.33;100426.81;5064865;27;100685;-89
2021/10/05 11:37:20;;;;;;;;;;;;;;;20.72;61.04;100425.28;5047768;27;96986;-91
2021/10/05 11:39:47;;;;;;;;;;;;;;;20.71;61.06;100422.72;5061803;27;96965;-89
2021/10/05 11:47:40;;;;;;;;;;;;;;;20.80;60.64;100414.78;5055095;27;97090;-91
2021/10/05 11:50:08;;;;;;;;;;;;;;;20.94;59.92;100414.44;5071741;27;96871;-92
2021/10/05 11:52:45;;;;;;;;;;;;;;;20.92;60.25;100403.00;5051958;27;97001;-88
2021/10/05 11:55:12;;;;;;;;;;;;;;;20.92;60.32;100408.38;5067044;27;99902;-89
2021/10/05 11:57:44;;;;;;;;;;;;;;;20.90;60.04;100406.78;5066745;27;96767;-89
2021/10/05 12:00:20;;;;;;;;;;;;;;;20.51;60.91;100413.63;5049922;28;96896;-92
2021/10/05 12:02:49;;;;;;;;;;;;;;;20.44;61.99;100409.75;5070305;27;99396;-89
2021/10/05 12:05:24;;;;;;;;;;;;;;;20.63;61.43;100407.25;5060351;27;97830;-90
2021/10/05 12:08:00;;;;;;;;;;;;;;;20.39;62.12;100398.53;5074299;27;96205;-85
2021/10/05 12:10:27;;;;;;;;;;;;;;;20.67;61.34;100400.66;5073272;27;96999;-85
2021/10/05 12:12:53;;;;;;;;;;;;;;;20.75;61.25;100394.63;5072938;27;99572;-89
2021/10/05 12:15:23;;;;;;;;;;;;;;;20.71;61.05;100394.06;5074805;27;98031;-88
2021/10/05 12:18:07;;;;;;;;;;;;;;;20.57;61.96;100389.81;5080366;27;96115;-89
2021/10/05 12:20:57;;;;;;;;;;;;;;;20.05;62.72;100395.88;5077820;27;96617;-90
2021/10/05 12:23:39;;;;;;;;;;;;;;;20.16;62.93;100403.91;5079548;27;98925;-90
2021/10/05 12:26:24;;;;;;;;;;;;;;;19.65;65.24;100391.97;5077674;27;96800;-91
2021/10/05 12:29:04;;;;;;;;;;;;;;;19.62;64.90;100393.06;5072536;27;98400;-86
2021/10/05 12:31:31;;;;;;;;;;;;;;;19.15;66.46;100388.69;5075312;27;96817;-84
2021/10/05 12:36:40;;;;;;;;;;;;;;;20.07;63.25;100395.75;5069004;27;98391;-83
2021/10/05 12:39:17;;;;;;;;;;;;;;;19.85;64.49;100393.91;5070752;27;96398;-85
2021/10/05 12:44:43;;;;;;;;;;;;;;;19.97;63.61;100387.56;5072419;27;99611;-82
2021/10/05 12:47:10;;;;;;;;;;;;;;;19.94;63.70;100387.84;5075856;27;98849;-85
2021/10/05 12:49:37;;;;;;;;;;;;;;;19.92;63.78;100395.16;5077014;27;96514;-85
2021/10/05 12:52:04;;;;;;;;;;;;;;;20.10;63.27;100401.72;5054747;27;96160;-83
2021/10/05 12:54:32;;;;;;;;;;;;;;;20.18;63.07;100395.72;5075414;27;98839;-85
2021/10/05 12:59:50;;;;;;;;;;;;;;;19.92;63.81;100400.50;5067973;27;96861;-83
2021/10/05 13:02:24;;;;;;;;;;;;;;;19.90;64.20;100403.31;5066257;27;96918;-89
2021/10/05 13:04:51;;;;;;;;;;;;;;;20.20;63.04;100399.16;5074641;27;98999;-88
2021/10/05 13:07:20;;;;;;;;;;;;;;;20.01;63.39;100399.78;5053726;27;98832;-88
2021/10/05 13:15:24;;;;;;;;;;;;;;;19.91;63.86;100406.84;5046156;27;98048;-89
2021/10/05 13:17:50;;;;;;;;;;;;;;;20.04;63.64;100402.19;5077558;27;96999;-91
2021/10/05 13:20:18;;;;;;;;;;;;;;;20.06;62.52;100407.44;5076278;27;96751;-87
2021/10/05 13:22:45;;;;;;;;;;;;;;;20.15;62.85;100407.53;5070901;27;96638;-89
2021/10/05 13:25:12;;;;;;;;;;;;;;;20.16;63.07;100405.72;5053832;27;97564;-89
2021/10/05 13:33:11;;;;;;;;;;;;;;;20.30;62.03;100417.06;5064940;27;96802;-89